Pinetop, Arizona
Current Conditions -  °F | °C
As of 6:15 PM on Friday 31 Oct 2014 (Local Time) from KSOW Reporting Station
Clear Clear  
Wind Chill: 59°   Ceiling: Unl
Heat Index: 59°   Visibility: 10mi
Dew Point: 41°   Wind: 13mph
Humidity: 51%   Direction: 180°S
Pressure: 30.14"   Gusts: 18mph
Location:  34.13°N, 109.94°W
Report Text: KSOW 010115Z AUTO 18011G16KT 10SM CLR 15/05 A3014 RMK AO2
Loading
Personal Weather Stations






























Interactive Weather Map
Tropical Storm Tracking
New forecast layout! Learn more

10-Day Weather Forecast

Advertisements
Track Severe Weather on mobile